EKHN weather

Horns Rev B Helideck
Denmark

Public forecast

Using degrees Celsius for public forecast. Weather courtesy of forecast.io.

Current aviation weather report (METAR) for Horns Rev B Helideck

Report is more than 6 hours old.

Retrieved 2016/08/09 11:50 UTC (4 years ago):

EKHN 091150Z AUTO 29027KT 270V330 9999NDV FEW032/// 14/11 Q1018

Closest aviation forecast (TAF) to Horns Rev B Helideck

Forecast is more than 12 hours old.

Closest forecast is Esbjerg Airport, 31.9 nm (59.0 km) E. Retrieved 2015/09/18 18:00 UTC (5 years ago):

TAF EKEB 181707Z 1818/1822 24008KT 9999 SCT025 TEMPO 1818/1820 -SHRA SCT020CB